Résultats 2020

Une erreur dans le classement ? Ecrivez-nous à reclamation@ultratiming.be en précisant votre nom, numéro de dossard, et épreuve à laquelle vous avez participé. Les réclamations sont clôturées 3 jours après l’événement.

Résultats 2020

01 - Chrono|Classement Scratch
Corrida de la Chandeleur 2020
Classement Général
RangDos.Nom PrénomM/FCat.TempsEcart 1er
Canicross
3.3KM
1.1871VANDERZWALMEN SabineF (1.)V1F (1.)10:40--
2.1833FLAMENT WilliamM (1.)SeH (1.)11:19+0:39
3.1832FÉRON AndyM (2.)SeH (2.)12:50+2:10
4.1812BUFFET KevinM (3.)SeH (3.)12:52+2:12
5.1828DEMOOR GregoryM (4.)SeH (4.)13:06+2:26
6.1841LACOSTE DorianM (5.)SeH (5.)13:17+2:37
7.1852NOEL MiguelM (6.)SeH (6.)14:14+3:34
8.1803BACHELART CyrilM (7.)SeH (7.)14:47+4:07
9.1801ARNOULD BarbaraF (2.)SeF (1.)14:57+4:17
10.1850MOUGE JuM (8.)SeH (8.)15:20+4:40
11.1844LEURQUIN FredericM (9.)V1H (1.)15:41+5:01
12.1807BESSEM MichaelM (10.)V1H (2.)15:41+5:01
13.1817COLLE EmilieF (3.)SeF (2.)15:42+5:02
14.1827DEMILLECAMPS ClaraF (4.)EspF (1.)16:12+5:32
15.1864VANDENBORNE AurélieF (5.)SeF (3.)16:39+5:59
16.1822DEBRAZ JoyceF (6.)SeF (4.)16:39+5:59
17.1858ROBERT AlineF (7.)SeF (5.)16:44+6:04
18.1856RAUW EliottM (11.)EspH (1.)17:07+6:27
19.1838KINKIN CarolineF (8.)SeF (6.)17:12+6:32
20.1220DENIS AuroreF (9.)SeF (7.)17:26+6:46
21.1854PIRON CharlotteF (10.)SeF (8.)17:27+6:47
22.1859SIONGERS RaphaëlM (12.)V1H (3.)17:40+7:00
23.1863VANBELLINGHEN CécileF (11.)V1F (2.)17:55+7:15
24.1870WINAND NicolasM (13.)SeH (9.)18:00+7:20
25.1815CATELIN DeborahF (12.)SeF (9.)18:04+7:24
26.1855PRÉAT GauthierM (14.)SeH (10.)18:09+7:29
27.1805BAUDRY ElsaF (13.)EspF (2.)18:18+7:38
28.1857RECLOUX AudreyF (14.)SeF (10.)18:27+7:47
29.1867VAST LaurentM (15.)V1H (4.)18:32+7:52
30.1829DESMEDT JulieF (15.)V1F (3.)18:57+8:17
31.1809BINI Marie EveF (16.)SeF (11.)18:57+8:17
32.1846MARANA StéphanieF (17.)SeF (12.)19:50+9:10
33.1819COTON LauraF (18.)SeF (13.)20:16+9:36
34.1865VANDENHAUTE ThibaultM (16.)SeH (11.)20:24+9:44
35.1868WASTIAUX MurielleF (19.)V1F (4.)20:30+9:50
36.1845LIBOIS MurielF (20.)V1F (5.)20:49+10:09
37.1831EVERAERTS NoémieF (21.)EspF (3.)20:50+10:10
38.1810BRYS CaroleF (22.)SeF (14.)20:51+10:11
39.1840KONG XiaomanF (23.)SeF (15.)21:00+10:20
40.1860STEKETEE MargotF (24.)V1F (6.)21:04+10:24
41.1575RIFFAULT MarianneF (25.)SeF (16.)22:34+11:54
42.1839KIRTEN SandraF (26.)V1F (7.)22:59+12:19
43.1873GOVAERTS SylviaF (27.)V1F (8.)22:59+12:19
44.1818CORNET GéraldineF (28.)SeF (17.)23:29+12:49
45.1826DEMARBE JustineF (29.)SeF (18.)24:00+13:20
46.1835FRÉQUELIN CassieF (30.)SeF (19.)25:40+15:00
47.1802B Bolle MichaelM (17.)V3H (1.)25:44+15:04
48.1241DEWALS MaelleF (31.)SeF (20.)27:35+16:55
49.1814CAPITE JoaquinM (18.)EspH (2.)1:32:15+81:35
6.6KM
1.1834FLAMENT PatriceM (1.)V1H (1.)20:52--
2.1869WETZEL ErwinM (2.)SeH (1.)23:49+2:57
3.1874BERTRAND JonathanM (3.)SeH (2.)26:43+5:51
4.1847MARTINEZ DavidM (4.)V1H (2.)27:58+7:06
5.1816CEINOS ManonF (1.)SeF (1.)28:44+7:52
6.1820DAUCHOT MargauxF (2.)SeF (2.)28:45+7:53
7.1848MATHIEU ManonF (3.)SeF (3.)37:02+16:10
8.1825DELFORGE IsabelleF (4.)SeF (4.)37:44+16:52
9.1837HOCK FrançoiseF (5.)V2F (1.)41:59+21:07
10.1862VAN LEEUW BernadetteF (6.)V2F (2.)44:11+23:19
11.1808BIGOURDAN ManuelM (5.)V1H (3.)44:53+24:01
12.1830EMILIE OrbanF (7.)SeF (5.)45:05+24:13
13.1824DEBUYST NicolasM (6.)V2H (1.)57:01+36:09
Corrida de la chandeleur
3.3KM
1.1780ELMATOUGUI LahcenM (1.)SeH (1.)10:54--
2.1472MATHY Jean-JacquesM (2.)V1H (1.)12:25+1:31
3.1701VANDERVORST EdwinM (3.)SeH (2.)12:30+1:36
4.1018BAEYENS SebastienM (4.)SeH (3.)12:38+1:44
5.1352HEENEN SimonM (5.)EspH (1.)13:55+3:01
6.1280POORTMAN RomainM (6.)EspH (2.)14:00+3:06
7.1311GARCIA François-DavidM (7.)V1H (2.)14:06+3:12
8.1300FORTUNATO ItaloM (8.)V2H (1.)14:15+3:21
9.1550POORTMAN MatheoM (9.)EspH (3.)14:21+3:27
10.1776MEHSSATOU FatimaF (1.)V1F (1.)14:59+4:05
11.1278ERNOUX LeaF (2.)EspF (1.)15:06+4:12
12.1289FIEVEZ PierreM (10.)V3H (1.)15:31+4:37
13.1674VAN LAEKEN LauryneF (3.)EspF (2.)15:45+4:51
14.1748GROSJEAN NicolasM (11.)SeH (4.)15:55+5:01
15.1137CORNELIS SophieF (4.)SeF (1.)16:06+5:12
16.1164DE BELDER SebastienM (12.)SeH (5.)17:02+6:08
17.1623SOTTIAUX OdileF (5.)EspF (3.)17:42+6:48
18.1596SAUVAGE MaëlleF (6.)EspF (4.)17:43+6:49
19.17811781 N.n. (1.) (1.)17:58+7:04
20.1230DERUME AymericM (13.)SeH (6.)17:59+7:05
21.2878YOWA SabriM (14.)EspH (4.)18:20+7:26
22.2854CAPRA AlessandroM (15.)EspH (5.)18:25+7:31
23.2881ELOY VallyF (7.)SeF (2.)18:33+7:39
24.2876HASSENS EthanM (16.)EspH (6.)18:34+7:40
25.2809HAUTELLAIR EmilieF (8.)EspF (5.)19:00+8:06
26.1404LAMBERT NathanM (17.)EspH (7.)19:07+8:13
27.1320GHEM SamM (18.)EspH (8.)19:08+8:14
28.1756ROUYER QuentinM (19.)SeH (7.)19:09+8:15
29.1751LECHIEN KristopheM (20.)V1H (3.)19:17+8:23
30.1288FIEVET AmandineF (9.)SeF (3.)19:32+8:38
31.1767DEWILDE LuceF (10.)EspF (6.)19:36+8:42
32.1112CHANTRY LoickM (21.)EspH (9.)19:52+8:58
33.1616SIONGERS NathanM (22.)EspH (10.)20:04+9:10
34.1050BLIN XavierM (23.)V2H (2.)20:25+9:31
35.1443LOIR GuillaumeM (24.)EspH (11.)20:29+9:35
36.1190DEBUSSCHER AlixF (11.)SeF (4.)20:36+9:42
37.2877EL OUALITI YoussefM (25.)EspH (12.)20:38+9:44
38.1257DUBOIS LaurenceF (12.)V2F (1.)20:41+9:47
39.2875YOWA TSHI MANGA MalikaM (26.)EspH (13.)20:45+9:51
40.1405LAMBERT NicolasM (27.)SeH (8.)20:53+9:59
41.2879TCHANKIO MerveilleF (13.)EspF (7.)21:06+10:12
42.1306FRANCOIS ClémenceF (14.)EspF (8.)21:07+10:13
43.1066BOUCHE LouiseF (15.)EspF (9.)21:07+10:13
44.1646TILLY DorianM (28.)EspH (14.)21:09+10:15
45.1638TEHEUX MartinM (29.)EspH (15.)21:10+10:16
46.1433LEMOINE YanisM (30.)EspH (16.)21:12+10:18
47.1319GHEM LucasM (31.)EspH (17.)21:21+10:27
48.1680VANBAELEN BerengereF (16.)V1F (2.)21:30+10:36
49.1073BRANCART BastienM (32.)EspH (18.)21:49+10:55
50.2860MARICQ AlyssaF (17.)EspF (10.)21:50+10:56
51.2891DELSAUTE CelineF (18.)SeF (5.)21:51+10:57
52.1045BERTRAND SandrineF (19.)V1F (3.)21:58+11:04
53.1615SIMON PolineF (20.)SeF (6.)21:59+11:05
54.1602SCHOONENBURG MitkoM (33.)SeH (9.)22:10+11:16
55.1069BOURGUIGNON RudyM (34.)SeH (10.)22:15+11:21
56.1337GRICOURT TomM (35.)EspH (19.)22:21+11:27
57.1341GUERRY FrédéricM (36.)V1H (4.)22:23+11:29
58.1094CAPIZZI LennyM (37.)EspH (20.)22:44+11:50
59.1136CORNELIS BrigitteF (21.)V2F (2.)22:47+11:53
60.1675VAN LAETHEM GuyM (38.)V2H (3.)22:47+11:53
61.2840IRHIMEH AlexisM (39.)EspH (21.)22:49+11:55
62.1457MARCHANT MelanieF (22.)SeF (7.)22:59+12:05
63.1529PEETERS MatthiasM (40.)EspH (22.)23:01+12:07
64.1574RIESEN NathanM (41.)EspH (23.)23:14+12:20
65.1268DUPONT NoaM (42.)EspH (24.)23:17+12:23
66.1322GILLARD SophieF (23.)SeF (8.)23:52+12:58
67.1513NOEL AmandineF (24.)EspF (11.)23:56+13:02
68.1070BOUSSAKLATAN RaniaF (25.)EspF (12.)23:57+13:03
69.1697VANDERMEERSCH SebastienF (26.)V1F (4.)24:07+13:13
70.1604SCHREURS NoahM (43.)EspH (25.)24:08+13:14
71.1695VANDERMEERSCH CamilleF (27.)EspF (13.)24:10+13:16
72.2880CUGNET BrendaF (28.)EspF (14.)24:11+13:17
73.17881788 N.n. (2.) (2.)24:14+13:20
74.1727VERMEULEN MyriamF (29.)V3F (1.)24:14+13:20
75.1231DESERRANNO PatrickM (44.)V3H (2.)24:15+13:21
76.1375JACOB LauraneF (30.)SeF (9.)24:29+13:35
77.1508NEVEN NellyF (31.)V3F (2.)24:29+13:35
78.2839DEMEULOER EliottM (45.)EspH (26.)24:30+13:36
79.1423LEDOUX SéverineF (32.)V1F (5.)24:41+13:47
80.1418LECOCQ NathalieF (33.)V2F (3.)24:57+14:03
81.1172COLLE JulienM (46.)SeH (11.)25:16+14:22
82.1593SANDRON ChloéF (34.)EspF (15.)25:18+14:24
83.1259DUBRUNQUEZ SylvieF (35.)V1F (6.)25:21+14:27
84.1644THOMAS EliseF (36.)EspF (16.)25:21+14:27
85.2817COLLIN CarolineF (37.)V1F (7.)25:27+14:33
86.1255D'OURS FrançoiseF (38.)V1F (8.)25:29+14:35
87.1544PIERSON LindaF (39.)V1F (9.)25:31+14:37
88.1570RENARD GwendolineF (40.)SeF (10.)25:31+14:37
89.1369HEYMANS PaulineF (41.)SeF (11.)25:31+14:37
90.1489MINET CindyF (42.)SeF (12.)25:35+14:41
91.1291FINET MichelM (47.)V3H (3.)25:36+14:42
92.1740WISZOWATA EwelinaF (43.)V1F (10.)25:36+14:42
93.2834PAREYS QuentinM (48.)SeH (12.)26:00+15:06
94.1464MARTINEZ IsabelF (44.)V2F (4.)26:12+15:18
95.1528PEEREN FrançoiseF (45.)V2F (5.)26:14+15:20
96.1606SCLIPTEUX MarieF (46.)V1F (11.)26:18+15:24
97.1240DEVRESSE ChristopheM (49.)V2H (4.)26:22+15:28
98.1689VANDER ELST NathalieF (47.)V1F (12.)26:23+15:29
99.1611SECONDI FedericaF (48.)SeF (13.)26:24+15:30
100.1501MUDRY EmericM (50.)SeH (13.)26:24+15:30
101.1603SCHREURS LucaM (51.)EspH (27.)26:26+15:32
102.1787VANBEL LINGHEN NicoleF (49.)V2F (6.)26:28+15:34
103.1187DE WILDE SophieF (50.)V1F (13.)26:29+15:35
104.1425LEFEBVRE TatienneF (51.)V1F (14.)26:36+15:42
105.1647TILLY Jean-FrançoisM (52.)V1H (5.)26:37+15:43
106.1021BALLEGEER NicoleF (52.)V2F (7.)26:38+15:44
107.1639TEHEUX ThomasM (53.)V1H (6.)26:40+15:46
108.1048BIOT DenisM (54.)V1H (7.)26:42+15:48
109.1652TREUTTENS ElouannM (55.)EspH (28.)26:43+15:49
110.1178DE KONINCK ChloéF (53.)EspF (17.)26:50+15:56
111.1351HAULOTTE NathanM (56.)EspH (29.)26:52+15:58
112.1657TRUM FlorenceF (54.)SeF (14.)26:56+16:02
113.2802BONFOND EliseF (55.)EspF (18.)27:07+16:13
114.1082BROWET CharlotteF (56.)SeF (15.)27:11+16:17
115.1538PIERIDIS VickyF (57.)V1F (15.)27:11+16:17
116.1594SANDRON PhilippeM (57.)V1H (8.)27:22+16:28
117.1421LECOMTE MarieF (58.)SeF (16.)27:23+16:29
118.1426LEFEVRE AlineF (59.)SeF (17.)27:23+16:29
119.1783BONNET LillyF (60.)EspF (19.)27:29+16:35
120.1486MICHIELS ÉlodieF (61.)SeF (18.)27:45+16:51
121.1253DOULIÉ PascaleF (62.)V2F (8.)27:46+16:52
122.1471MATHY CamilleF (63.)EspF (20.)27:46+16:52
123.1664VAN DER GHINST AnnickF (64.)V2F (9.)27:47+16:53
124.1286FERON MarinaF (65.)V3F (3.)27:48+16:54
125.1347HAMEL AudreyF (66.)SeF (19.)27:50+16:56
126.1068BOUCQUEAU FabianM (58.)SeH (14.)27:52+16:58
127.1691VANDERCAMMEN LindsayF (67.)SeF (20.)27:53+16:59
128.1380JEANGOUT GinetteF (68.)V3F (4.)27:54+17:00
129.1338GRIETENS ChristineF (69.)V2F (10.)28:05+17:11
130.1040BERGHMANS Jeanne-MarieF (70.)SeF (21.)28:08+17:14
131.1175DE FABRIBECKERS HélèneF (71.)SeF (22.)28:09+17:15
132.1759DHULU Lou-IndiaF (72.)EspF (21.)28:14+17:20
133.1386KARVOUNIARIS LitsaF (73.)SeF (23.)28:15+17:21
134.1012ARBALESTRIE MaëlleF (74.)SeF (24.)28:19+17:25
135.1732VOS CarineF (75.)V2F (11.)28:36+17:42
136.1688VANDEPOEL FabienM (59.)SeH (15.)28:57+18:03
137.1154DALLEMAGNE MatthewM (60.)SeH (16.)28:57+18:03
138.1682VANDECASTEELE SéverineF (76.)V1F (16.)29:00+18:06
139.1482MEULENBERGH ChloëF (77.)SeF (25.)29:05+18:11
140.1389KELLER PhilippeM (61.)V3H (4.)29:15+18:21
141.1019BAEZ FannyF (78.)V1F (17.)29:15+18:21
142.1502MULONGO SaloméF (79.)V2F (12.)29:16+18:22
143.1339GROFFILS FannyF (80.)SeF (26.)29:30+18:36
144.1739WILLIAUME LaurenceF (81.)V1F (18.)30:01+19:07
145.1217DEMILLECAMPS EmmanuelM (62.)V2H (5.)30:01+19:07
146.2803VENTURA CelineF (82.)V1F (19.)30:03+19:09
147.2805BRANCAERT SebastienM (63.)SeH (17.)30:04+19:10
148.1393KOUKIAS IoannisM (64.)EspH (30.)30:09+19:15
149.1610SCURTI VerildaF (83.)V1F (20.)30:14+19:20
150.1146CRAENEMBROECK NancyF (84.)V2F (13.)30:18+19:24
151.1075BRANCART NathalieF (85.)V1F (21.)30:20+19:26
152.1131COOREMAN CélesteF (86.)EspF (22.)30:42+19:48
153.1294FLANDRE SophieF (87.)V2F (14.)30:44+19:50
154.1677VAN PUT ChristineF (88.)SeF (27.)30:45+19:51
155.1613SEHA Marie-HeleneF (89.)V1F (22.)30:48+19:54
156.1476MEERT GenevièveF (90.)V1F (23.)30:54+20:00
157.1193DECASTIAU MurielF (91.)V1F (24.)31:13+20:19
158.1429LEFEVRE PaulineF (92.)SeF (28.)31:33+20:39
159.17901790 N.n. (3.) (3.)31:51+20:57
160.1196DECOCQ JaneF (93.)V2F (15.)32:07+21:13
161.1194DECLOUX FrédéricM (65.)V1H (9.)32:25+21:31
162.1181DE NECKERE BénédicteF (94.)V1F (25.)32:38+21:44
163.1422LECOMTE LudivineF (95.)SeF (29.)32:44+21:50
164.1049BIRON ElodieF (96.)SeF (30.)32:45+21:51
165.1714VANMOER GeertM (66.)SeH (18.)32:49+21:55
166.2833DETERME ZoeF (97.)EspF (23.)32:59+22:05
167.2832DETERME KarimM (67.)V1H (10.)33:00+22:06
168.1632SWAELENS PascaleF (98.)V2F (16.)33:02+22:08
169.1325GLIBERT SylvieF (99.)SeF (31.)33:17+22:23
170.1145CRAENEMBROECK IsabelleF (100.)V2F (17.)34:08+23:14
171.1679VAN THIENEN VeroniqueF (101.)V2F (18.)34:23+23:29
172.1417LECLERCQ ThéoM (68.)SeH (19.)36:50+25:56
173.1665VAN DER MAREN Marie-ThérèseF (102.)V3F (5.)40:32+29:38
174.1461MARTIN PierreM (69.)SeH (20.)43:46+32:52
175.1499MORTIER DenisM (70.)SeH (21.)55:31+44:37
176.1438LEROY GuillaumeM (71.)EspH (31.)1:29:58+79:04
177.1221DENIS MarjorieF (103.)V1F (26.)a.k.-0:09
6.6KM
1.1667VAN ESPEN FabriceM (1.)SeH (1.)21:35--
2.1474MATTHYS AlexisM (2.)SeH (2.)22:29+0:54
3.1778GREGOIRE ValentinM (3.)SeH (3.)22:41+1:06
4.1774SNEESSENS MichaelM (4.)SeH (4.)23:51+2:16
5.1493MONFILS ThibaultM (5.)SeH (5.)23:56+2:21
6.2814SLEGERS BrunoM (6.)SeH (6.)24:02+2:27
7.1795DE JONAE HuguesM (7.)EspH (1.)24:27+2:52
8.1540PIERRE FrédéricM (8.)V1H (1.)25:08+3:33
9.1245DI VINCENZO PascalM (9.)V2H (1.)25:52+4:17
10.1118CLAUS BasileM (10.)EspH (2.)26:20+4:45
11.1605SCHREURS SébastienM (11.)V1H (2.)26:25+4:50
12.1504NAVEAU ThomasM (12.)SeH (7.)26:45+5:10
13.1120CLAUS GaspardM (13.)EspH (3.)26:47+5:12
14.1551POORTMAN YvanM (14.)V1H (3.)26:52+5:17
15.1671VAN HAMME MartinM (15.)EspH (4.)26:55+5:20
16.1153DALAIDEN NicolasM (16.)SeH (8.)27:35+6:00
17.1274ELOIN JulienM (17.)SeH (9.)27:52+6:17
18.1441LEURS ZoéF (1.)SeF (1.)28:19+6:44
19.1578ROBIN AlexM (18.)V1H (4.)28:19+6:44
20.2838GVOZMENOVIC EmiliaF (2.)SeF (2.)29:03+7:28
21.1463MARTINANGELI MatteoM (19.)EspH (5.)29:17+7:42
22.1498MORREN ThierryM (20.)SeH (10.)29:24+7:49
23.1211DELOBBE FabienM (21.)V1H (5.)29:45+8:10
24.1158DANIELS NicolasM (22.)SeH (11.)29:47+8:12
25.1798THOMAS JeremyM (23.)SeH (12.)29:52+8:17
26.1635TASIAUX DamienM (24.)SeH (13.)30:06+8:31
27.1424LEDUC JordanM (25.)SeH (14.)30:31+8:56
28.1580ROESEMS WilliamM (26.)SeH (15.)31:12+9:37
29.1096CAPIZZI VincenzaF (3.)V1F (1.)31:56+10:21
30.28632863 N.n. (1.) (1.)32:01+10:26
31.1799PEETERS GuillaumeM (27.)SeH (16.)32:21+10:46
32.1589SADIN NathalieF (4.)SeF (3.)32:23+10:48
33.1794PERMENTIER DelphineF (5.)V1F (2.)32:29+10:54
34.1067BOUCHE VictorM (28.)EspH (6.)32:42+11:07
35.1539PIERRE CorentinM (29.)SeH (17.)32:46+11:11
36.1651TRÉMOUROUX SébastienM (30.)V1H (6.)32:46+11:11
37.1768DEWILDE DimitriM (31.)V1H (7.)32:59+11:24
38.1633TACKOEN BenoitM (32.)V1H (8.)33:26+11:51
39.1383JONCKERS PitchM (33.)V3H (1.)33:31+11:56
40.1168DE BROUWER RomaneF (6.)EspF (1.)34:20+12:45
41.1299FONTEYN ChristopheM (34.)V1H (9.)34:27+12:52
42.1754DUBALLET CorentinM (35.)SeH (18.)34:28+12:53
43.1755ROUYER MichaelM (36.)SeH (19.)34:31+12:56
44.1198DECOURTIT FredericM (37.)V1H (10.)34:52+13:17
45.1328GODEAU JeanneF (7.)SeF (4.)34:53+13:18
46.1549PONCELET ThomasM (38.)SeH (20.)34:56+13:21
47.1043BERNARD MarieF (8.)SeF (5.)35:02+13:27
48.1125COLASSE ArnaudM (39.)SeH (21.)35:12+13:37
49.1374HUYSMAN DenisM (40.)V1H (11.)35:17+13:42
50.1359HENRY FabriceM (41.)V1H (12.)35:19+13:44
51.2859PAGE ThibautM (42.)SeH (22.)35:28+13:53
52.1515NOOTENS RomainM (43.)SeH (23.)35:30+13:55
53.2874BODA XavierM (44.)V1H (13.)36:09+14:34
54.1442LHEUREUX JacquesM (45.)V2H (2.)36:15+14:40
55.1331GOFFIN GilM (46.)V1H (14.)36:15+14:40
56.1750DISY TimothyM (47.)EspH (7.)36:18+14:43
57.1313GEERAERTS MagaliF (9.)SeF (6.)36:18+14:43
58.1003ADANS JulienM (48.)SeH (24.)36:18+14:43
59.1229DERUIJTTER StéphaneM (49.)SeH (25.)36:35+15:00
60.1753HESMANS EstelleF (10.)SeF (7.)36:40+15:05
61.1495MOORS LaurenceF (11.)SeF (8.)36:44+15:09
62.1624SOYEZ RomainM (50.)EspH (8.)36:56+15:21
63.1763DESMET FilipM (51.)V2H (3.)37:08+15:33
64.1403LAMBERT OliM (52.)V1H (15.)37:09+15:34
65.1746POTIER CelineF (12.)V1F (3.)37:19+15:44
66.1315GENNART Anne-SophieF (13.)SeF (9.)37:24+15:49
67.1152DA SILVA IsaF (14.)V1F (4.)37:24+15:49
68.1661VAN CALCK NancyF (15.)SeF (10.)37:29+15:54
69.1034BAZARD NoahM (53.)EspH (9.)37:37+16:02
70.1367HEYMANS RémiM (54.)SeH (26.)37:41+16:06
71.1649TOUBEAU LaurentM (55.)SeH (27.)37:46+16:11
72.1685VANDENBERGHE StéphanM (56.)V2H (4.)37:58+16:23
73.1027BATAILLE ManonF (16.)SeF (11.)38:04+16:29
74.2873VERBEURE Anne GaelF (17.)V1F (5.)38:10+16:35
75.1490MINNON Jean-FrancoisM (57.)SeH (28.)38:15+16:40
76.1640THÉATE SandraF (18.)SeF (12.)38:21+16:46
77.1090CALLENS ValerieF (19.)V2F (1.)38:22+16:47
78.1719VARZOS GrégoireM (58.)EspH (10.)38:25+16:50
79.1460MARTIN CarolineF (20.)V1F (6.)38:26+16:51
80.1536PETKOVIC LepaF (21.)SeF (13.)38:29+16:54
81.1378JADIN ThierryM (59.)V1H (16.)38:30+16:55
82.1599SCHNEIDER MartinF (22.)V1F (7.)38:35+17:00
83.1357HENRIOULLE JérômeM (60.)SeH (29.)38:37+17:02
84.1452MAGNONI RiccardoM (61.)SeH (30.)38:58+17:23
85.1391KIN LaurenceF (23.)V2F (2.)39:06+17:31
86.1192DECAMP MartineF (24.)V3F (1.)39:06+17:31
87.1072BRACKE ChristelleF (25.)SeF (14.)39:13+17:38
88.1785CARDOSO DA ROCHA JoaoF (26.)V2F (3.)39:19+17:44
89.1741ZAGHBOUR KabiM (62.)SeH (31.)39:24+17:49
90.1105CAVIGNAC GuyM (63.)V2H (5.)39:36+18:01
91.1065BOUCHE LaurentM (64.)V1H (17.)39:46+18:11
92.1530PEETROONS OlivierM (65.)V1H (18.)40:00+18:25
93.1725VERHELST PaulineF (27.)SeF (15.)40:14+18:39
94.1696VANDERMEERSCH ClémenceF (28.)EspF (2.)40:22+18:47
95.1592SANDRON BastienM (66.)EspH (11.)40:28+18:53
96.2842STACHE CaroleF (29.)SeF (16.)40:35+19:00
97.1626STACHE FlorenceF (30.)SeF (17.)40:36+19:01
98.1237DEVEUSTER BenjaminM (67.)V1H (19.)40:38+19:03
99.1563RAUW JoelM (68.)V2H (6.)40:50+19:15
100.1179CARLIER FlorineF (31.)EspF (3.)40:52+19:17
101.1344GYRE SophieF (32.)SeF (18.)40:52+19:17
102.1419LECOCQ WenceslasM (69.)SeH (32.)41:04+19:29
103.1246DIRCKX LaurentM (70.)V1H (20.)41:06+19:31
104.1061BORSUS ElisabethF (33.)SeF (19.)41:09+19:34
105.1479MEKROM BilalM (71.)EspH (12.)41:16+19:41
106.1629STASSIN LoryM (72.)SeH (33.)41:18+19:43
107.1545PINNA MelissaF (34.)SeF (20.)41:25+19:50
108.1321GILLAIN AlainM (73.)V2H (7.)41:30+19:55
109.1628STASSIN DanyM (74.)V3H (2.)41:34+19:59
110.1212DELSUPEHE QuentinM (75.)SeH (34.)41:36+20:01
111.1173DE BRUYNE NatsumiF (35.)V1F (8.)41:39+20:04
112.2886VAN DESSEL ChantalF (36.)V2F (4.)41:50+20:15
113.1730VINKEN BarbaraF (37.)V1F (9.)41:59+20:24
114.1712VANHUFFELEN DiegoM (76.)EspH (13.)42:04+20:29
115.1095CAPIZZI MelissaF (38.)SeF (21.)42:09+20:34
116.1275ELOY MarieF (39.)SeF (22.)42:23+20:48
117.1162DAUGINET LaurenceF (40.)V1F (10.)42:35+21:00
118.1408LANNOY ChristineF (41.)V2F (5.)42:38+21:03
119.1397LABIAU MurielF (42.)V3F (2.)42:47+21:12
120.1706VANHOLLEBEKE LéaF (43.)EspF (4.)42:47+21:12
121.1673VAN HERCK StéphanieF (44.)SeF (23.)42:49+21:14
122.1081BROSSIER SarahF (45.)SeF (24.)42:49+21:14
123.1366HEUSCHLING StéphaneM (77.)V2H (8.)43:01+21:26
124.1013ARCHIBALD GregoryM (78.)V1H (21.)43:04+21:29
125.1063BOUCHAT ChristineF (46.)V1F (11.)43:09+21:34
126.1600SCHOLLAERT MarieF (47.)SeF (25.)43:23+21:48
127.1411LAURENT JessicaF (48.)SeF (26.)43:28+21:53
128.1381JOFFREY BruylandM (79.)SeH (35.)43:33+21:58
129.1046BERTRAND YvesM (80.)V2H (9.)43:35+22:00
130.1390KHAFIZOVA IekaterinaF (49.)SeF (27.)43:38+22:03
131.1111CHAMPAGNE SybilleF (50.)V2F (6.)43:45+22:10
132.1520NYS LaurenceF (51.)V1F (12.)43:45+22:10
133.1022BARO VirginieF (52.)SeF (28.)43:50+22:15
134.1733WAERENBURGH FannyF (53.)SeF (29.)43:50+22:15
135.1342GUIDON SophieF (54.)V1F (13.)43:52+22:17
136.1630STASSIN WivineF (55.)SeF (30.)43:56+22:21
137.1244DEWITTE HéloïseF (56.)EspF (5.)43:57+22:22
138.1290FILLEE NathalieF (57.)V2F (7.)43:58+22:23
139.1684VANDENBERGH FrançoiseF (58.)V1F (14.)44:02+22:27
140.1361HENRY CarolineF (59.)V1F (15.)44:06+22:31
141.1107CENTRITTO OrnellaF (60.)SeF (31.)44:08+22:33
142.1681VANDAMBERG TomM (81.)V1H (22.)44:21+22:46
143.1060BORLÉE Marie-NoëlleF (61.)V1F (16.)44:23+22:48
144.1349HAULOTTE Jean-PierreM (82.)V1H (23.)44:26+22:51
145.1566RAYMAKERS JudyF (62.)V1F (17.)44:29+22:54
146.1645TIHANGE FabienneF (63.)V1F (18.)44:32+22:57
147.1029BAUDOUX VeroniqueF (64.)V1F (19.)45:02+23:27
148.1023BARONHEID Ann-SophieF (65.)SeF (32.)45:03+23:28
149.1577RIVIÈRE MathildeF (66.)SeF (33.)45:17+23:42
150.17921792 N.n. (2.) (2.)45:18+23:43
151.17911791 N.n. (3.) (3.)45:18+23:43
152.1653TREUTTENS FrédéricM (83.)V1H (24.)45:21+23:46
153.1654TREUTTENS MaïlysF (67.)EspF (6.)45:21+23:46
154.1007ALEXANDRE BenoitM (84.)SeH (36.)45:24+23:49
155.1772DECHAMPS SebastienM (85.)SeH (37.)45:28+23:53
156.1445LORETTE SarahF (68.)SeF (34.)45:32+23:57
157.1770DECHAMPS NatachaF (69.)SeF (35.)45:32+23:57
158.1373HUBERT CoralieF (70.)SeF (36.)45:33+23:58
159.1272DZEKO NathanaëlM (86.)SeH (38.)45:35+24:00
160.2858PIRA SimonM (87.)SeH (39.)45:37+24:02
161.2857ARCQ VincentM (88.)V1H (25.)45:37+24:02
162.1265DUMONT SabineF (71.)V1F (20.)45:38+24:03
163.1160DARGE ManonF (72.)V1F (21.)45:38+24:03
164.1752DE BOCK MarieF (73.)SeF (37.)45:39+24:04
165.1184DE PRA HuguesM (89.)V1H (26.)45:39+24:04
166.1303FOURIAU LaurenceF (74.)SeF (38.)45:41+24:06
167.1310GALLAND LaurentM (90.)SeH (40.)45:42+24:07
168.1726VERMEIRE PhilippeM (91.)V1H (27.)45:45+24:10
169.1041BERHIN SabrinaF (75.)SeF (39.)45:46+24:11
170.1042BERHIN MaitéF (76.)SeF (40.)45:46+24:11
171.1537PICQUET MaëlleF (77.)SeF (41.)45:49+24:14
172.1532PEPINSTER ArthurM (92.)SeH (41.)45:54+24:19
173.1005AERTS GillesM (93.)SeH (42.)45:57+24:22
174.1721VERCALSTEREN JulieF (78.)SeF (42.)45:58+24:23
175.1161DAUBIGNY LiseF (79.)SeF (43.)46:05+24:30
176.1376JACOB LorraineF (80.)V1F (22.)46:05+24:30
177.1102CARTIAUX OlivierM (94.)SeH (43.)46:07+24:32
178.1416LECLERCQ CéliaF (81.)SeF (44.)46:12+24:37
179.1188DE WINNE PatrickM (95.)V3H (3.)46:13+24:38
180.1360HENRY SéverineF (82.)SeF (45.)46:23+24:48
181.1447LUC PhilippeM (96.)V2H (10.)46:47+25:12
182.1038BELLERY PierreM (97.)V1H (28.)46:48+25:13
183.1348HANNOUILLE ValerieF (83.)V2F (8.)46:57+25:22
184.1350HAULOTTE NathalieF (84.)V1F (23.)47:03+25:28
185.1316GERARD ChristelleF (85.)V1F (24.)47:04+25:29
186.1703VANDEZANDE MurielF (86.)SeF (46.)47:05+25:30
187.2836LEJEUNE SarahF (87.)SeF (47.)47:08+25:33
188.1292FLAMENT NathalieF (88.)V1F (25.)47:08+25:33
189.1465MASSEM MarianneF (89.)V1F (26.)47:09+25:34
190.1008ALOST MarianneF (90.)V1F (27.)47:10+25:35
191.1731VLOEBERGH EvelyneF (91.)V1F (28.)47:18+25:43
192.1601SCHOONEN NicoleF (92.)V1F (29.)47:18+25:43
193.1222DENTURCK ArwenF (93.)EspF (7.)47:19+25:44
194.1496MOREAU FlorianeF (94.)SeF (48.)47:21+25:46
195.1269DURVIAUX SylviaF (95.)V1F (30.)47:22+25:47
196.1619SMEEKENS ElodieF (96.)SeF (49.)47:38+26:03
197.1516NORI RachidaF (97.)V1F (31.)47:42+26:07
198.1428LEFEVRE MichelM (98.)V2H (11.)47:43+26:08
199.2826CARLIER AmandineF (98.)SeF (50.)47:43+26:08
200.1446LOSSIGNOL VeroniqueF (99.)V2F (9.)47:49+26:14
201.1598SCHETS DelphineF (100.)V1F (32.)47:51+26:16
202.1699VANDERSTEEN SCHETS ChloéF (101.)EspF (8.)47:51+26:16
203.1607SCOHY ChantalF (102.)V3F (3.)47:51+26:16
204.1080BROGNIET FrancoisM (99.)V2H (12.)47:54+26:19
205.1004AERTS EddyM (100.)V2H (13.)48:03+26:28
206.1208DELATTRE MarcM (101.)V2H (14.)48:11+26:36
207.1470MATHON DominiqueF (103.)V2F (10.)48:11+26:36
208.1028BATAILLE MorganeF (104.)SeF (51.)48:18+26:43
209.1276ELZINGA GeeskeF (105.)V2F (11.)48:23+26:48
210.1371HOSTEAUX FrançoiseF (106.)V1F (33.)48:38+27:03
211.2850FERDINAND ManonF (107.)SeF (52.)48:40+27:05
212.1124COIRBAY RégineF (108.)V2F (12.)48:47+27:12
213.1215DEMAY Anne-CatherineF (109.)V1F (34.)48:49+27:14
214.1218DEMONSEAU ManonF (110.)SeF (53.)49:00+27:25
215.2841QUERTAINMONT PhilippeM (102.)V3H (4.)49:10+27:35
216.1512NOEL JulieF (111.)V1F (35.)49:24+27:49
217.1571RENER CélineF (112.)SeF (54.)49:39+28:04
218.1590SALESSE CédricM (103.)V1H (29.)49:54+28:19
219.1631STRUELENS SophieF (113.)V1F (36.)50:07+28:32
220.1773ROUSSEAUX AnneF (114.)V2F (13.)50:10+28:35
221.17451745 N.n. (4.) (4.)50:16+28:41
222.1459MARINO CarmelinaF (115.)V3F (4.)50:16+28:41
223.1233DESORBAIX NathalieF (116.)V1F (37.)50:44+29:09
224.1586ROSSI MarinaF (117.)V1F (38.)50:47+29:12
225.2807BOEUR ChristianM (104.)V3H (5.)51:11+29:36
226.1784BONNET JulesM (105.)EspH (14.)51:15+29:40
227.2852GODFROID SophieF (118.)V2F (14.)51:16+29:41
228.1507NETIK SonjaF (119.)V2F (15.)51:17+29:42
229.1167DE BOECK LilianeF (120.)V2F (16.)51:19+29:44
230.1087BUYENS JohanM (106.)V3H (6.)51:20+29:45
231.1488MICHOTTE Anne-SophieF (121.)V1F (39.)51:34+29:59
232.1427LEFEVRE ClaireF (122.)SeF (55.)52:41+31:06
233.1011ANTOINE Anne-SophieF (123.)SeF (56.)53:11+31:36
234.1643THOMA Anne-CatherineF (124.)V1F (40.)53:55+32:20
235.1555PRÉMONT IsabelleF (125.)V2F (17.)54:37+33:02
236.1053BOLLÉ Marie-PierreF (126.)V2F (18.)55:03+33:28
237.1071BOUWENS MaryleneF (127.)V2F (19.)55:03+33:28
238.1392KOK MarcM (107.)V1H (30.)55:16+33:41
239.1247DOBLAS ValérieF (128.)SeF (57.)55:42+34:07
240.1142COTTON VirginieF (129.)V1F (41.)56:00+34:25
241.1295FOCKE MaricaF (130.)V2F (20.)56:01+34:26
242.1189DEBROEK LaurenceF (131.)V1F (42.)56:14+34:39
243.1250DORMAL BrigitteF (132.)V3F (5.)56:27+34:52
244.1273EECKHOUT StéphanieF (133.)SeF (58.)56:30+34:55
245.1735WAUTIER ThibautM (108.)EspH (15.)57:54+36:19
246.1346HAGHDAD MOFRAD MaryamF (134.)V1F (43.)57:54+36:19
247.1141CORNET AnaïsF (135.)SeF (59.)59:17+37:42
248.1252DOUCET CamilleF (136.)SeF (60.)1:00:12+38:37
249.2824CAMBIER BrunoM (109.)SeH (44.)1:05:57+44:22
9.9KM
1.1758PAUL RomainM (1.)SeH (1.)31:57--
2.1414LEBLICQ SebastienM (2.)SeH (2.)33:45+1:48
3.1185DE RIJDT ThibaultM (3.)SeH (3.)34:46+2:49
4.2818REZSOHAZY RomainM (4.)SeH (4.)35:06+3:09
5.1335GOUDEMANT TomM (5.)EspH (1.)35:33+3:36
6.2848DEMOULIN VincentM (6.)V1H (1.)36:05+4:08
7.1140CORNÉLIS Pierre-YvesM (7.)V2H (1.)37:15+5:18
8.1138CORNÉLIS JérémieM (8.)SeH (5.)37:16+5:19
9.1318GHALI MaxenceM (9.)SeH (6.)38:05+6:08
10.1765RICHARD PierreM (10.)V2H (2.)38:28+6:31
11.11261126 N.n. (1.) (1.)38:33+6:36
12.2831DEBEIS BertrandM (11.)SeH (7.)38:42+6:45
13.1524PAIROUX AlexandreM (12.)SeH (8.)38:42+6:45
14.2844MOUREAU DorianM (13.)SeH (9.)38:43+6:46
15.1707VANHORICK BrunoM (14.)V3H (1.)38:45+6:48
16.2815SALERNO JulienM (15.)SeH (10.)38:55+6:58
17.1617SLADE WilliamM (16.)SeH (11.)38:56+6:59
18.1032BAUGNIET SachaM (17.)SeH (12.)40:05+8:08
19.1114CHARLOTEAUX NicolasM (18.)V1H (2.)40:09+8:12
20.1777LEGROS HarryM (19.)SeH (13.)40:14+8:17
21.1713VANMARCKE ThomasM (20.)SeH (14.)40:22+8:25
22.1166DE BIE MikaelM (21.)SeH (15.)40:26+8:29
23.1444LONFILS TimothéeM (22.)SeH (16.)40:30+8:33
24.1364HESMANS BenjaminM (23.)SeH (17.)40:58+9:01
25.1797PIRET LoganM (24.)SeH (18.)41:17+9:20
26.2851HOUDMONT PierreM (25.)SeH (19.)41:20+9:23
27.2808GILLET QuentinM (26.)V1H (3.)41:40+9:43
28.1134COPPEE EricM (27.)V2H (3.)41:40+9:43
29.1183DE POTTER LaurentM (28.)V1H (4.)41:48+9:51
30.2872GILLAIN Thi???M (29.)SeH (20.)41:50+9:53
31.1572RENTMEESTERS LaurentM (30.)SeH (21.)41:52+9:55
32.1197DECORTE BenoîtM (31.)SeH (22.)41:54+9:57
33.1180DE MUNTER AlainM (32.)V2H (4.)42:01+10:04
34.1618SLIMANI KarimM (33.)SeH (23.)42:06+10:09
35.1448LUYCKFASSEEL ArnaudM (34.)SeH (24.)42:11+10:14
36.1686VANDENBOSCH GeoffreyM (35.)V1H (5.)42:18+10:21
37.1106CAZZORLA VitoM (36.)V2H (5.)42:27+10:30
38.1722VERCRUYSSE JorisM (37.)SeH (25.)42:54+10:57
39.1044BERREWAERTS LucM (38.)V1H (6.)43:00+11:03
40.1279EWBANK BrunoM (39.)SeH (26.)43:07+11:10
41.2811BLEYEN PieterM (40.)SeH (27.)43:20+11:23
42.1793BERREWAERTS EtienneM (41.)V3H (2.)43:26+11:29
43.1139CORNÉLIS JustinM (42.)EspH (2.)43:28+11:31
44.1796DE BONDT MichelM (43.)V2H (6.)43:37+11:40
45.1334GOUDEMANT EtienneM (44.)V1H (7.)43:42+11:45
46.1009ALUNNI BOLDRINI SimoneM (45.)V1H (8.)43:49+11:52
47.1078BRAY ColinM (46.)V3H (3.)43:53+11:56
48.1554PREAUX QuentinM (47.)SeH (28.)43:55+11:58
49.1666VAN DOORSLAER SophieF (1.)SeF (1.)43:57+12:00
50.1648TONNELLE Jean-CharlesM (48.)V1H (9.)44:01+12:04
51.1771ROZET ArnaudM (49.)SeH (29.)44:06+12:09
52.1744DELINTE GauthierM (50.)SeH (30.)44:22+12:25
53.2828BOREUX ThomasM (51.)SeH (31.)44:35+12:38
54.1693VANDERHAEGEN SamuelM (52.)V1H (10.)45:14+13:17
55.1302FOURDIN StephaneM (53.)SeH (32.)45:24+13:27
56.2856CAILLEAU AlexandreM (54.)V1H (11.)45:32+13:35
57.1165DE BIE AugustinM (55.)SeH (33.)45:37+13:40
58.2882VANDER VORST MathieuM (56.)SeH (34.)45:48+13:51
59.1384JOURDAIN CarolineF (2.)V1F (1.)45:50+13:53
60.1163DE BACKER MayaF (3.)SeF (2.)45:53+13:56
61.1720VELEZ LeonardoM (57.)SeH (35.)46:05+14:08
62.1491MIRAUMONT LaurentM (58.)V1H (12.)46:11+14:14
63.1263DUMON KorneelM (59.)SeH (36.)46:16+14:19
64.1323GILLE ThomasM (60.)SeH (37.)46:23+14:26
65.2837ROSILLON DominiqueM (61.)V3H (4.)46:30+14:33
66.1304FRANCARD MarieF (4.)SeF (3.)46:35+14:38
67.2887FAIVRE StephaneM (62.)SeH (38.)46:37+14:40
68.2835CALDERS RudyM (63.)V2H (7.)46:39+14:42
69.1527PATERNOSTRE StéphanieF (5.)V1F (2.)46:42+14:45
70.1542PIERRE StéphaneM (64.)V2H (8.)46:53+14:56
71.1521OUAKLANI SamiM (65.)SeH (39.)47:00+15:03
72.1434LENAERTS SteveM (66.)SeH (40.)47:04+15:07
73.1775ROUIS MyriamF (6.)SeF (4.)47:08+15:11
74.1121CLEMENT BenjaminM (67.)SeH (41.)47:16+15:19
75.2801DEPOUHON RaphaelM (68.)V3H (5.)47:20+15:23
76.1260DUHOT AntoineM (69.)SeH (42.)47:27+15:30
77.1327GOBBERS EricM (70.)V2H (9.)47:50+15:53
78.1395KRIER GabrielM (71.)SeH (43.)47:59+16:02
79.1658TUMELAIRE SophieF (7.)V2F (1.)48:05+16:08
80.1101CARPIAUX SergeM (72.)V2H (10.)48:11+16:14
81.1534PEROO DavidM (73.)V2H (11.)48:12+16:15
82.1283FELLERICH GuyM (74.)V1H (13.)48:16+16:19
83.1216DEMEY AntoineM (75.)SeH (44.)48:16+16:19
84.1462MARTIN YvesM (76.)SeH (45.)48:19+16:22
85.1234DESORT DimitriM (77.)V2H (12.)48:26+16:29
86.1769COOSEMANS JoelM (78.)V1H (14.)48:33+16:36
87.2825BELLEMONT GregoryM (79.)SeH (46.)48:35+16:38
88.2890MARTIN NicolasM (80.)SeH (47.)48:55+16:58
89.1561RASSART ThierryM (81.)V2H (13.)48:55+16:58
90.1709VANHOUCHE DidierM (82.)V1H (15.)48:56+16:59
91.1480MERGEAY GillesM (83.)SeH (48.)49:11+17:14
92.1210DELMAY AlexisM (84.)SeH (49.)49:14+17:17
93.1715VANOBBERGHEN DenisM (85.)SeH (50.)49:16+17:19
94.1232DESIRANT ChristopheM (86.)V1H (16.)49:23+17:26
95.1207DELATTRE JulienM (87.)SeH (51.)49:26+17:29
96.1085BULPA AndréM (88.)V3H (6.)49:30+17:33
97.1298FONTEYN AntoninM (89.)EspH (3.)49:45+17:48
98.1365HESMANS ArnaudM (90.)V1H (17.)49:57+18:00
99.1074BRANCART LaurentM (91.)V1H (18.)49:59+18:02
100.1439LESNE DidierM (92.)V2H (14.)50:02+18:05
101.1104CASSIERS SéverineF (8.)SeF (5.)50:10+18:13
102.1236DETREMMERIE MathieuM (93.)SeH (52.)50:11+18:14
103.1343GUILITE SébastienM (94.)SeH (53.)50:11+18:14
104.1541PIERRE MathiasM (95.)SeH (54.)50:22+18:25
105.1526PASSOT SixtineF (9.)SeF (6.)50:28+18:31
106.1458MARCUS MathieuM (96.)SeH (55.)50:45+18:48
107.1248DOGUI AmineM (97.)SeH (56.)50:49+18:52
108.1621SORIA LOPEZ MiguelM (98.)V1H (19.)50:53+18:56
109.2883DENYS NicolasM (99.)SeH (57.)51:07+19:10
110.1047BIARD SophieF (10.)SeF (7.)51:16+19:19
111.1690VANDER STRICHT LoïcM (100.)SeH (58.)51:22+19:25
112.1668VAN ESPEN GaëlM (101.)SeH (59.)51:22+19:25
113.1475MECHERGUI SamiM (102.)SeH (60.)51:27+19:30
114.1627STALINS PhilippineF (11.)SeF (8.)51:36+19:39
115.1235DESSART VeroniqueF (12.)V3F (1.)51:42+19:45
116.1723VERDONCK SimonM (103.)SeH (61.)51:43+19:46
117.1786DE SMEDT XavierM (104.)V1H (20.)51:44+19:47
118.2810DUMORTIER ChristopheM (105.)V2H (15.)51:47+19:50
119.1487MICHIELS ErikM (106.)V2H (16.)51:51+19:54
120.1453MAHIA BérangèreF (13.)V1F (3.)51:52+19:55
121.2829BROZE SiméonM (107.)SeH (62.)52:12+20:15
122.1456MAMBOURG MartinM (108.)SeH (63.)52:17+20:20
123.1396KRIER Jean-PhilippeM (109.)V1H (21.)52:19+20:22
124.1010ANDRÉ LaurenceF (14.)V1F (4.)52:19+20:22
125.2885CHAUFOURNEAU CorineF (15.)V1F (5.)52:27+20:30
126.1608SCOUPE NanouF (16.)V2F (2.)52:28+20:31
127.1033BAZARD AlainM (110.)V1H (22.)52:29+20:32
128.2849HOUDMONT AlileF (17.)SeF (9.)52:30+20:33
129.1625SPREUTELS GregoryM (111.)SeH (64.)52:43+20:46
130.1001ABATZIS OlgaF (18.)V1F (6.)52:50+20:53
131.1036BELIS JonathanM (112.)SeH (65.)52:58+21:01
132.1110CHAFI FarahmanM (113.)SeH (66.)53:07+21:10
133.1468MATHIEU DonatienneF (19.)V1F (7.)53:27+21:30
134.1705VANHOLLEBEKE AlexandreM (114.)V1H (23.)53:32+21:35
135.1282FALLY ElodieF (20.)SeF (10.)53:33+21:36
136.1177DE GROOTE EstelleF (21.)SeF (11.)53:33+21:36
137.1016BADA DidierM (115.)V2H (17.)53:41+21:44
138.2853SEGERS CharlotteF (22.)SeF (12.)53:47+21:50
139.1169DE BROUWER SergeM (116.)V2H (18.)53:50+21:53
140.1113CHARLIER AdélaïdeF (23.)SeF (13.)53:52+21:55
141.1655TRIPOLI MaurizioM (117.)V1H (24.)53:55+21:58
142.1585ROMERS MathieuM (118.)SeH (67.)53:56+21:59
143.1431LEHANNE EricM (119.)V1H (25.)53:59+22:02
144.1379JANSSENS MichèleF (24.)V1F (8.)54:02+22:05
145.1743ZYLBERBERG LucM (120.)V3H (7.)54:03+22:06
146.1088BUYLE JonathanM (121.)V1H (26.)54:06+22:09
147.1326GLIBERT VirginieF (25.)V1F (9.)54:06+22:09
148.1591SALIMUKHA KaterynaF (26.)SeF (14.)54:10+22:13
149.1228DEROM ChristianM (122.)V2H (19.)54:10+22:13
150.1584ROMERS EricM (123.)V2H (20.)54:16+22:19
151.1377JACOBS QuentinM (124.)SeH (68.)54:33+22:36
152.1415LEBRUN DavidM (125.)SeH (69.)54:35+22:38
153.1132COOREMAN ChristopheM (126.)V1H (27.)54:41+22:44
154.1573RICA JuliaF (27.)V1F (10.)54:42+22:45
155.1747BRUYNINCKX AlainM (127.)V1H (28.)54:42+22:45
156.1451MAGEREN MatthieuM (128.)EspH (4.)54:49+22:52
157.1497MOREAU MaryèveF (28.)SeF (15.)54:50+22:53
158.1097CARDINAEL ThibautM (129.)V1H (29.)54:51+22:54
159.1660VAN BELLEGHEM AlainM (130.)V3H (8.)55:07+23:10
160.1708VANHORLE FrédéricM (131.)V2H (21.)55:12+23:15
161.1698VANDERPUT StianM (132.)SeH (70.)55:13+23:16
162.2855DE BACKER RachelF (29.)V2F (3.)55:22+23:25
163.1506NÉE NathalieF (30.)V2F (4.)55:22+23:25
164.1485MICHEL MathieuM (133.)V1H (30.)55:24+23:27
165.1204DEJONGHE Jean-PaulM (134.)V3H (9.)55:25+23:28
166.1123COEURDEROI QuentinM (135.)SeH (71.)55:29+23:32
167.1511NOEL ChristopheM (136.)V1H (31.)55:44+23:47
168.1336GOUDMAEKER ClaudeM (137.)V3H (10.)55:45+23:48
169.1597SAVIGNY DanielM (138.)V1H (32.)55:48+23:51
170.1119CLAUS FredericM (139.)V1H (33.)55:49+23:52
171.1086BURTON MadeleineF (31.)SeF (16.)55:52+23:55
172.2888GOUNARIS VolodiaM (140.)SeH (72.)56:03+24:06
173.2846THEATRE RaphaelM (141.)SeH (73.)56:06+24:09
174.1148CROGNALETTI GladysF (32.)SeF (17.)56:16+24:19
175.1505NAZIR NabilaF (33.)SeF (18.)56:18+24:21
176.1484MICHALSKA KatarzynaF (34.)SeF (19.)56:22+24:25
177.1370HOLVOET DominiqueF (35.)V2F (5.)56:31+24:34
178.1533PERNIAUX JonathanM (142.)SeH (74.)56:39+24:42
179.1054BONELLA JonathanM (143.)SeH (75.)56:39+24:42
180.2884PLANTIER CandileF (36.)V1F (11.)56:43+24:46
181.1552POQUET GaëtanM (144.)SeH (76.)56:44+24:47
182.1449LUYTEN FabienneF (37.)V2F (6.)56:45+24:48
183.2843NILLES MarieF (38.)SeF (20.)56:46+24:49
184.1659VAN BELLE AnneF (39.)V2F (7.)56:51+24:54
185.1562RAUSENS LandryM (145.)SeH (77.)57:03+25:06
186.1547PIRSON AmélieF (40.)SeF (21.)57:11+25:14
187.1363HERMANNS BeatriceF (41.)V1F (12.)57:12+25:15
188.1656TROONEN Jean-FrançoisM (146.)SeH (78.)57:31+25:34
189.1401LALLEMAND PascaleF (42.)V1F (13.)57:31+25:34
190.1407LAMBOTTE CindyF (43.)SeF (22.)57:32+25:35
191.1609SCOUPPE GéryM (147.)V2H (22.)57:45+25:48
192.1284FERNANDEZ DanielM (148.)V1H (34.)57:50+25:53
193.1387KEIMEUL CatherineF (44.)V2F (8.)57:55+25:58
194.2847VANDECLISSE MaximeM (149.)V1H (35.)57:58+26:01
195.1174DE BUCK ThomasM (150.)SeH (79.)58:02+26:05
196.1622SOTTIAUX JérômeM (151.)V1H (36.)58:05+26:08
197.1353HEENEN DavidM (152.)V1H (37.)58:17+26:20
198.1514NOIZET Marie-AliceF (45.)V2F (9.)58:19+26:22
199.1557QUOITOT JulieF (46.)SeF (23.)58:20+26:23
200.1382JONCKERS JacquelineF (47.)V2F (10.)58:22+26:25
201.1277ERHARD CélineF (48.)V1F (14.)58:26+26:29
202.1662VAN DER ESSEN GauthierM (153.)V1H (38.)58:34+26:37
203.1724VERGAUWEN AudreyF (49.)SeF (24.)58:34+26:37
204.1368HEYMANS StephanieF (50.)SeF (25.)58:38+26:41
205.1642THIRY MélanieF (51.)V1F (15.)58:47+26:50
206.1492MOENS AlexandraF (52.)SeF (26.)58:48+26:51
207.2845CARIAT CedricM (154.)SeH (80.)58:50+26:53
208.1517NOTTÉ MichaelM (155.)V1H (39.)59:00+27:03
209.1702VANDEWALLE ChantalF (53.)V1F (16.)59:02+27:05
210.1213DEMANET HélèneF (54.)SeF (27.)59:03+27:06
211.1473MATTEZ GenevièveF (55.)V2F (11.)59:07+27:10
212.1766MERTENS CaroleF (56.)V1F (17.)59:13+27:16
213.1150CROONENBORGHS AnnickF (57.)V2F (12.)59:13+27:16
214.1058BOREUX PaulineF (58.)SeF (28.)59:21+27:24
215.1308FRANÇOIS FrederiqueF (59.)V1F (18.)59:41+27:44
216.1362HERION EricM (156.)V1H (40.)59:46+27:49
217.1736WERCKX SandrineF (60.)V1F (19.)59:47+27:50
218.1676VAN PARIJS VirginieF (61.)SeF (29.)59:49+27:52
219.1764SCHEPERS AndreM (157.)V1H (41.)59:53+27:56
220.1143COUGNON IsabelleF (62.)SeF (30.)59:54+27:57
221.1201DEGREZ ElodieF (63.)SeF (31.)59:55+27:58
222.1057BOREUX BaudouinM (158.)V2H (23.)1:00:02+28:05
223.1672VAN HAMME XavierM (159.)V1H (42.)1:00:03+28:06
224.11271127 N.n. (2.) (2.)1:00:03+28:06
225.1020BAILLIF Anne-ClaireF (64.)SeF (32.)1:00:07+28:10
226.1128COMPERE MichelM (160.)V3H (11.)1:00:12+28:15
227.2816PAQUET ShirleyF (65.)SeF (33.)1:00:13+28:16
228.1710VANHOUCHE RomaneF (66.)EspF (1.)1:00:17+28:20
229.1718VANWYNSBERGHE MarcM (161.)V2H (24.)1:00:18+28:21
230.1760DE FRU DelphineF (67.)V1F (20.)1:00:23+28:26
231.1678VAN RANSBEECK VanessaF (68.)V1F (21.)1:00:27+28:30
232.1398LACROIX FlorenceF (69.)V1F (22.)1:00:38+28:41
233.1559RAMOISY IsabelleF (70.)V1F (23.)1:00:46+28:49
234.1749VAMDEUOORT MichelineF (71.)V3F (2.)1:00:59+29:02
235.1135COQUELET ValérieF (72.)SeF (34.)1:01:00+29:03
236.1025BASILE FabioM (162.)V1H (43.)1:01:01+29:04
237.1182DE POTTER BenoitM (163.)V3H (12.)1:01:11+29:14
238.1191DEBUYSSCHER Anne-SophieF (73.)SeF (35.)1:01:13+29:16
239.2823BUCHLER SimonM (164.)SeH (81.)1:01:14+29:17
240.1510NIETO MORENO GwennaelleF (74.)SeF (36.)1:01:24+29:27
241.1556QUOITIN DavidM (165.)SeH (82.)1:01:24+29:27
242.1355HENIN SabrinaF (75.)SeF (37.)1:01:27+29:30
243.1345HABAY OlivierM (166.)V1H (44.)1:01:28+29:31
244.1494MONTENEZ SarahF (76.)SeF (38.)1:01:34+29:37
245.1430LEFÈVRE AlbanM (167.)SeH (83.)1:01:46+29:49
246.1757VANKEERBERGHEN JacquesM (168.)V2H (25.)1:02:01+30:04
247.1399LACROIX MiguelM (169.)V1H (45.)1:02:02+30:05
248.1567REGHEM SophieF (77.)V1F (24.)1:02:02+30:05
249.1064BOUCHAT DominiqueM (170.)V1H (46.)1:02:04+30:07
250.1002ADAM DelphineF (78.)SeF (39.)1:02:08+30:11
251.1243DEWILDE ClaireF (79.)SeF (40.)1:02:08+30:11
252.1564RAVELOARIVAHY TianaF (80.)V1F (25.)1:02:11+30:14
253.1340GROGNET SoniaF (81.)V2F (13.)1:02:13+30:16
254.1519NUYTTEN StephanieF (82.)V1F (26.)1:02:16+30:19
255.1455MAMBOURG Marie-CatherineF (83.)SeF (41.)1:02:26+30:29
256.1402LAMBAUX FabianM (171.)V1H (47.)1:02:39+30:42
257.1469MATHIEU SandrineF (84.)V1F (27.)1:02:40+30:43
258.1853PANNEELS Jean-JacquesM (172.)V3H (13.)1:02:43+30:46
259.1568REMY CathyF (85.)V2F (14.)1:02:47+30:50
260.1356HENNUY OdileF (86.)V2F (15.)1:02:47+30:50
261.1312GARCIA PalomaF (87.)V2F (16.)1:02:48+30:51
262.2813BONFANTI MarioM (173.)V3H (14.)1:02:50+30:53
263.1314GENICOT JessicaF (88.)V1F (28.)1:02:54+30:57
264.1800VANDEN BORRE EmileM (174.)V3H (15.)1:02:56+30:59
265.1728VERSTICHEL KarinF (89.)V2F (17.)1:03:03+31:06
266.1761AUTEQUITTE BenedicteF (90.)V2F (18.)1:03:07+31:10
267.1762HASTRAY ThierryM (175.)V2H (26.)1:03:07+31:10
268.1305FRANCART VirginieF (91.)V1F (29.)1:03:14+31:17
269.1026BASSOULET Jean-ClaudeM (176.)V3H (16.)1:03:26+31:29
270.1017BADA FlorianM (177.)SeH (84.)1:03:44+31:47
271.17791779 N.n. (3.) (3.)1:04:15+32:18
272.2861DUMONT JeromeM (178.)SeH (85.)1:04:37+32:40
273.2862COLLIER AmandineF (92.)SeF (42.)1:04:37+32:40
274.1170DE BRUCKER SabrinaF (93.)V1F (30.)1:04:38+32:41
275.1588SADDOUKI ChahrazadeF (94.)V1F (31.)1:04:59+33:02
276.1420LECOLLIER BelindaF (95.)V1F (32.)1:05:03+33:06
277.1108CERESSIAUX CélineF (96.)SeF (43.)1:05:04+33:07
278.1056BOONE MargauxF (97.)SeF (44.)1:05:06+33:09
279.1285FEROLA MariaF (98.)V1F (33.)1:05:07+33:10
280.1317GERARD DominiqueF (99.)V2F (19.)1:05:23+33:26
281.17891789 N.n. (4.) (4.)1:05:24+33:27
282.1296FOLIEN OlivierM (179.)V1H (48.)1:05:25+33:28
283.1413LE BOULENGE JulienM (180.)V1H (49.)1:05:25+33:28
284.1669VAN GANSBEKE PhilippeM (181.)SeH (86.)1:05:35+33:38
285.1195DECOCQ FrançoiseF (100.)V2F (20.)1:05:42+33:45
286.1329GOFFAUX LaurenceF (101.)V2F (21.)1:05:43+33:46
287.1271DUVIVIER ChristineF (102.)V2F (22.)1:05:46+33:49
288.1261DUJEU DavidM (182.)SeH (87.)1:05:58+34:01
289.1171DE BRUIJN NuriaF (103.)EspF (2.)1:06:05+34:08
290.1531PELLON GaelleF (104.)V1F (34.)1:06:10+34:13
291.1782BONNET GregoryM (183.)V1H (50.)1:06:16+34:19
292.2830CAMBIER BenoitM (184.)SeH (88.)1:06:42+34:45
293.1729VERZELE DorianM (185.)SeH (89.)1:07:01+35:04
294.1006ALBERT TristanM (186.)EspH (5.)1:07:17+35:20
295.1737WILL LysianeF (105.)SeF (45.)1:07:28+35:31
296.1503NAOMÉ EmerenceF (106.)SeF (46.)1:07:29+35:32
297.1287FETU ThierryM (187.)V1H (51.)1:07:35+35:38
298.1014ASLYAH SameraF (107.)V1F (35.)1:07:51+35:54
299.1636TCHEKEMIAN NicoleF (108.)V3F (3.)1:08:15+36:18
300.1866VANHUFFELEN JosselineF (109.)V3F (4.)1:08:15+36:18
301.1965DE JONCKER SoniaF (110.)V1F (36.)1:08:34+36:37
302.2889BALLEGEER MartineF (111.)V2F (23.)1:08:39+36:42
303.1266DUMONT ValentineF (112.)SeF (47.)1:08:40+36:43
304.1565RAXHON EliseF (113.)SeF (48.)1:08:40+36:43
305.1115CHARMANT ChristopheM (188.)V1H (52.)1:09:04+37:07
306.1558RAES JulieF (114.)SeF (49.)1:09:05+37:08
307.1663VAN DER GHINST PhilippeM (189.)V1H (53.)1:09:11+37:14
308.1595SAPIEHA MaïtéF (115.)SeF (50.)1:09:11+37:14
309.1523PACE SergioM (190.)V1H (54.)1:09:21+37:24
310.1641THIENPONT SylvieF (116.)V1F (37.)1:09:35+37:38
311.1467MASTRANTUONO LaetitiaF (117.)V1F (38.)1:09:38+37:41
312.1466MASSON QuentinM (191.)SeH (90.)1:10:11+38:14
313.1093CANOOT OlivierM (192.)SeH (91.)1:10:11+38:14
314.1614SERBEST VedatM (193.)V1H (55.)1:10:14+38:17
315.1410LAURENT AntoineM (194.)SeH (92.)1:10:43+38:46
316.1354HELLEPUTTE FlorineF (118.)SeF (51.)1:11:03+39:06
317.1267DUMONT BrigitteF (119.)V2F (24.)1:11:21+39:24
318.1309GALASTRO FortunataF (120.)V1F (39.)1:11:21+39:24
319.1587ROSSION Jean MarcM (195.)V2H (27.)1:11:34+39:37
320.1239DEVOS IsabelleF (121.)V1F (40.)1:11:40+39:43
321.1151CUSTI IsabelleF (122.)V1F (41.)1:12:00+40:03
322.1522OZSUVARIDIS PaulineF (123.)V1F (42.)1:13:21+41:24
323.1582ROLOUX DelphineF (124.)V2F (25.)1:14:01+42:04
324.1692VANDEREYD EricM (196.)V3H (17.)1:14:14+42:17
325.1206DELACROIX AlexandreM (197.)EspH (6.)1:14:33+42:36
326.1406LAMBIN GaelleF (125.)SeF (52.)1:14:34+42:37
327.1130COOLEN CathyF (126.)V1F (43.)1:14:37+42:40
328.1224DEPAUE ChristineF (127.)V2F (26.)1:15:29+43:32
329.1147CRÈVECOEUR JenniferF (128.)SeF (53.)1:15:31+43:34
330.1031BAUGNIET BenoîtM (198.)V2H (28.)1:17:18+45:21
331.1435LENOBLE Anne-NoelleF (129.)V1F (44.)1:18:49+46:52
332.1738WILLARD SegoleneF (130.)SeF (54.)1:19:58+48:01
333.1301FOTOPOULOS ElleniF (131.)SeF (55.)1:22:36+50:39
Kids
800m
1.1907CHARMANT TiméoM (1.)EspH (1.)4:30--
2.1981BERNARD SachaM (2.)EspH (2.)4:32+0:02
3.1916DELOBBE AmandineF (1.)EspF (1.)4:33+0:03
4.1913DEBRUYNE RémiM (3.)EspH (3.)4:34+0:04
5.1937LONFILS SachaM (4.)EspH (4.)4:35+0:05
6.1950SCHNEIDER AdrienM (5.)EspH (5.)4:37+0:07
7.1908CLEMENT RobinM (6.)EspH (6.)4:39+0:09
8.1961VANMARCKE JakobM (7.)EspH (7.)4:43+0:13
9.1960VANDERMEERSCH GuillaumeM (8.)EspH (8.)4:44+0:14
10.1975ROUYER LouisM (9.)EspH (9.)4:46+0:16
11.1949SAUVAGE EliaF (2.)EspF (2.)4:48+0:18
12.1942MICHEL MartinM (10.)EspH (10.)4:50+0:20
13.1918DELOUVROY FélixM (11.)EspH (11.)4:51+0:21
14.1952STORMS AntoineM (12.)EspH (12.)4:54+0:24
15.1941MICHEL ArthurM (13.)EspH (13.)4:59+0:29
16.1915DECLOUX NathanM (14.)EspH (14.)4:59+0:29
17.1951SCHOLLAERT UgoM (15.)EspH (15.)5:02+0:32
18.1968DZIEWILSKI VictorM (16.)EspH (16.)5:02+0:32
19.1978MONTEIRO FranciscoM (17.)EspH (17.)5:03+0:33
20.1976ROUYER GabrielM (18.)EspH (18.)5:03+0:33
21.1964VIROUX AlyciaF (3.)EspF (3.)5:03+0:33
22.1904BELDARS EliasM (19.)EspH (19.)5:05+0:35
23.1929JONARD ThibaultM (20.)EspH (20.)5:06+0:36
24.1914DEBUYSSCHER TimotyM (21.)EspH (21.)5:09+0:39
25.1935LEMOINE NaelM (22.)EspH (22.)5:12+0:42
26.1980DECHAMPS IlouF (4.)EspF (4.)5:22+0:52
27.1955TRÉMOUROUX MaximilienM (23.)EspH (23.)5:23+0:53
28.1974ROUYER LeopoldM (24.)EspH (24.)5:23+0:53
29.1982CLEMENT SamuelM (25.)EspH (25.)5:24+0:54
30.1912DEBRUYNE MiraF (5.)EspF (5.)5:24+0:54
31.1972MORREN JulesM (26.) (1.)5:24+0:54
32.1979LAUWERS MilaF (6.)EspF (6.)5:25+0:55
33.1924GENDEBIEN MaxineF (7.)EspF (7.)5:27+0:57
34.1932LEFEVRE GabrielM (27.)EspH (26.)5:28+0:58
35.1923GENDEBIEN AliceF (8.)EspF (8.)5:28+0:58
36.1969DZIEWULSKI EvaF (9.)EspF (9.)5:29+0:59
37.1936LONFILS BasileM (28.) (2.)5:31+1:01
38.1945MUSEUR ZoéF (10.)EspF (10.)5:32+1:02
39.1970LOOREMAN ElineF (11.)EspF (11.)5:32+1:02
40.1958VAN RISSEGHEM CatherineF (12.)EspF (12.)5:33+1:03
41.1956VAN DER ESSEN OliviaF (13.) (1.)5:35+1:05
42.1917DELOBBE SarahF (14.)EspF (13.)5:36+1:06
43.1967PICKAERT ElizaF (15.)EspF (14.)5:37+1:07
44.1922DUPONT UgoM (29.)EspH (27.)5:41+1:11
45.1903BAUGNIET NoémieF (16.)EspF (15.)5:42+1:12
46.1909COMPAIN LalyF (17.) (2.)5:49+1:19
47.1930LALOUX GUYAUT LisonF (18.)EspF (16.)5:50+1:20
48.1919DELOUVROY GaspardM (30.)EspH (28.)5:56+1:26
49.1959VAN RISSEGHEM WilliamM (31.) (3.)5:57+1:27
50.1966PICKAERT CharlotteF (19.)EspF (17.)6:04+1:34
51.1953THEUNISSEN LucieF (20.)EspF (18.)6:07+1:37
52.1901BAEYENS RoxaneF (21.)EspF (19.)6:14+1:44
53.1963VAST Marie-AliceF (22.)EspF (20.)6:14+1:44
54.1944MUDRY EmmanuelM (32.) (4.)6:14+1:44
55.1902BAEYENS SylvainM (33.) (5.)6:15+1:45
56.1971ANTOINE CamilleF (23.) (3.)6:15+1:45
57.1938MARTIN ConstantM (34.) (6.)6:17+1:47
58.1911DANIELS ZiaF (24.)EspF (21.)6:28+1:58
59.1925GRISEZ SCHOLLAERT EléaF (25.) (4.)6:37+2:07
60.1927HERMANT CamilleF (26.)EspF (22.)6:45+2:15
61.1928JADIN LilyF (27.)EspF (23.)6:49+2:19
62.1931LECHIEN AntoninM (35.) (7.)6:52+2:22
63.1926HERMANT AgatheF (28.)EspF (24.)6:53+2:23
64.1905BERREAWAERTS CyrilM (36.) (8.)6:56+2:26
65.1947PEETERS ValentinM (37.)EspH (29.)6:58+2:28
66.1933LEFEVRE LeiaF (29.)EspF (25.)7:07+2:37
67.1943MUDRY ElisaF (30.) (5.)7:13+2:43
68.1973MORREN EmilieF (31.) (6.)7:41+3:11
69.1910COMPAIN PolM (38.) (9.)7:42+3:12
70.1954THEUNISSEN MarieF (32.)EspF (26.)7:43+3:13
71.1939MARTIN PaulM (39.)EspH (30.)8:25+3:55
72.1962VANNOOTE LéoM (40.)EspH (31.)9:09+4:39
73.1906BERREWAERTS CharlyM (41.) (10.)14:16+9:46
Chronométrage Ultratiming.be